Hai Hua — XUDB9 — position and weather

sailwx.info

Track history (hours):
 
Tides and Currents Weather Stations Pressure Air Temp Water Temp Dewpoint Dewpoint Depression Visibility Wind Speed Wind Dir Waves Ship Positions

Hai Hua

Last reported at 2014-Jul-23 13:18 UTC. Time now 2014-Jul-25 09:06 UTC.
Position N 34°55' E 139°28'.

Length 69 m; draft 4.2 m.

MMSI: 515171000.

Date/timePositionNaut miles runAvg speedWind from/ knotsBaromVisibWave heightAir tempDewpointWater temp
2014-Jul-23 13:18N 34°55' E 139°28'6 7.8
2014-Jul-23 12:33N 34°59' E 139°33'8 8.4
2014-Jul-23 11:33N 35°04' E 139°41'9 9.1
2014-Jul-23 10:33N 35°12' E 139°46'9 9.4
2014-Jul-23 09:33N 35°21' E 139°42'9 9.0
2014-Jul-23 08:33N 35°29' E 139°48'4 3.5
2014-Jul-23 07:32N 35°31' E 139°45'0 0.0
2014-Jul-23 06:32N 35°31' E 139°45'0 0.0
2014-Jul-23 05:32N 35°31' E 139°45'0 0.0
2014-Jul-23 04:32N 35°31' E 139°45'0 0.0
2014-Jul-23 03:32N 35°31' E 139°45'0 0.0
2014-Jul-23 02:32N 35°31' E 139°45'0 0.0
2014-Jul-23 01:29N 35°31' E 139°45'0 0.0
2014-Jul-23 00:32N 35°31' E 139°45'0 0.0
2014-Jul-22 23:29N 35°31' E 139°45'0 0.0
2014-Jul-22 22:32N 35°31' E 139°45'0 0.0
2014-Jul-22 21:23N 35°31' E 139°45'0 0.0
2014-Jul-22 20:32N 35°31' E 139°45'0 0.0
2014-Jul-22 19:32N 35°31' E 139°45'0 0.0
2014-Jul-22 18:32N 35°31' E 139°45'0 0.0
2014-Jul-22 17:32N 35°31' E 139°45'0 0.0
2014-Jul-22 16:26N 35°31' E 139°45'0 0.0
2014-Jul-22 15:32N 35°31' E 139°45'0 0.0
2014-Jul-22 14:26N 35°31' E 139°45'0 0.0
2014-Jul-22 13:20N 35°31' E 139°45'0 0.0
2014-Jul-22 12:32N 35°31' E 139°45'0 0.0
2014-Jul-22 11:32N 35°31' E 139°45'0 0.0
2014-Jul-22 10:32N 35°31' E 139°45'0 0.0
2014-Jul-22 09:32N 35°31' E 139°45'0 0.0
2014-Jul-22 08:29N 35°31' E 139°45'0 0.0
2014-Jul-22 07:32N 35°31' E 139°45'0 0.0
2014-Jul-22 06:29N 35°31' E 139°45'0 0.0
2014-Jul-22 05:32N 35°31' E 139°45'0 0.0
2014-Jul-22 04:32N 35°31' E 139°45'0 0.0
2014-Jul-22 03:17N 35°31' E 139°45'0 0.0
2014-Jul-22 02:32N 35°31' E 139°45'0 0.0
2014-Jul-22 01:28N 35°31' E 139°45'0 0.0
2014-Jul-22 00:31N 35°31' E 139°45'0 0.0
2014-Jul-21 23:28N 35°31' E 139°45'0 0.0
2014-Jul-21 22:28N 35°31' E 139°45'3 3.4
2014-Jul-21 21:34N 35°29' E 139°42'2 1.9
2014-Jul-21 20:32N 35°27' E 139°43'0 0.1
2014-Jul-21 20:14N 35°27' E 139°43'0 0.0
2014-Jul-21 19:32N 35°27' E 139°43'0 0.0
2014-Jul-21 18:32N 35°27' E 139°43'0 0.0
2014-Jul-21 17:32N 35°27' E 139°43'0 0.0
2014-Jul-21 16:32N 35°27' E 139°43'0 0.0
2014-Jul-21 15:32N 35°27' E 139°43'0 0.0
2014-Jul-21 14:32N 35°27' E 139°43'0 0.0
2014-Jul-21 13:31N 35°27' E 139°43'0 0.0
2014-Jul-21 12:31N 35°27' E 139°43'0 0.0
2014-Jul-21 11:31N 35°27' E 139°43'0 0.0
2014-Jul-21 10:28N 35°27' E 139°43'0 0.0
2014-Jul-21 09:31N 35°27' E 139°43'0 0.0
2014-Jul-21 08:28N 35°27' E 139°43'0 0.1
2014-Jul-21 07:31N 35°27' E 139°42'0 0.0
2014-Jul-21 06:31N 35°27' E 139°42'0 0.0
2014-Jul-21 05:31N 35°27' E 139°42'0 0.0
2014-Jul-21 04:31N 35°27' E 139°42'0 0.0
2014-Jul-21 03:31N 35°27' E 139°42'0 0.0
2014-Jul-21 02:31N 35°27' E 139°42'0 0.0
2014-Jul-21 01:31N 35°27' E 139°42'0 0.0
2014-Jul-21 00:28N 35°27' E 139°42'0 0.0
2014-Jul-20 23:31N 35°27' E 139°42'0 0.0
2014-Jul-20 22:31N 35°27' E 139°42'0 0.1
2014-Jul-20 21:31N 35°27' E 139°43'0 0.0
2014-Jul-20 20:31N 35°27' E 139°43'0 0.0
2014-Jul-20 19:31N 35°27' E 139°43'0 0.0
2014-Jul-20 18:31N 35°27' E 139°43'0 0.0
2014-Jul-20 17:31N 35°27' E 139°43'0 0.0
2014-Jul-20 16:31N 35°27' E 139°43'0 0.0
2014-Jul-20 15:31N 35°27' E 139°43'0 0.0
2014-Jul-20 14:31N 35°27' E 139°43'0 0.0
2014-Jul-20 13:31N 35°27' E 139°43'0 0.1
2014-Jul-20 12:31N 35°27' E 139°42'0 0.0
2014-Jul-20 11:31N 35°27' E 139°42'0 0.0
2014-Jul-20 10:31N 35°27' E 139°42'0 0.0
2014-Jul-20 09:31N 35°27' E 139°43'0 0.0
2014-Jul-20 08:31N 35°27' E 139°43'0 0.1
2014-Jul-20 07:31N 35°27' E 139°42'0 0.0
2014-Jul-20 06:31N 35°27' E 139°42'0 0.0
2014-Jul-20 05:31N 35°27' E 139°42'0 0.0
2014-Jul-20 04:31N 35°27' E 139°42'0 0.0
2014-Jul-20 03:31N 35°27' E 139°42'0 0.0
2014-Jul-20 02:31N 35°27' E 139°42'0 0.0
2014-Jul-20 01:31N 35°27' E 139°42'0 0.0
2014-Jul-20 00:31N 35°27' E 139°42'0 0.1
2014-Jul-19 23:31N 35°27' E 139°43'0 0.0
2014-Jul-19 22:31N 35°27' E 139°43'0 0.0
2014-Jul-19 21:31N 35°27' E 139°42'0 0.0
2014-Jul-19 20:31N 35°27' E 139°42'0 0.0
2014-Jul-19 19:31N 35°27' E 139°42'0 0.0
2014-Jul-19 18:31N 35°27' E 139°42'0 0.0
2014-Jul-19 17:31N 35°27' E 139°42'0 0.0
2014-Jul-19 16:31N 35°27' E 139°42'0 0.0
2014-Jul-19 15:31N 35°27' E 139°43'0 0.0
2014-Jul-19 14:31N 35°27' E 139°43'0 0.0
2014-Jul-19 13:31N 35°27' E 139°43'0 0.0
2014-Jul-19 12:31N 35°27' E 139°43'0 0.0
2014-Jul-19 11:31N 35°27' E 139°43'0 0.0
2014-Jul-19 10:31N 35°27' E 139°43'0 0.0
2014-Jul-19 09:31N 35°27' E 139°43'1 1.3
2014-Jul-19 08:33N 35°27' E 139°44'1010.1
2014-Jul-19 07:33N 35°31' E 139°55'9 9.3
2014-Jul-19 06:33N 35°33' E 140°06'0 0.0
2014-Jul-19 05:32N 35°33' E 140°06'0 0.0
2014-Jul-19 04:32N 35°33' E 140°06'0 0.0
2014-Jul-19 03:32N 35°33' E 140°06'0 0.0
2014-Jul-19 02:32N 35°33' E 140°06'0 0.0
2014-Jul-19 01:23N 35°33' E 140°06'0 0.0
2014-Jul-19 00:32N 35°33' E 140°06'0 0.0
2014-Jul-18 23:32N 35°33' E 140°06'0 0.0
2014-Jul-18 22:34N 35°33' E 140°06'4 3.3
2014-Jul-18 21:28N 35°33' E 140°02'0 0.1
2014-Jul-18 20:31N 35°33' E 140°02'0 0.0
2014-Jul-18 19:31N 35°33' E 140°02'0 0.0
2014-Jul-18 18:31N 35°33' E 140°02'0 0.0
2014-Jul-18 17:31N 35°33' E 140°02'0 0.0
2014-Jul-18 16:31N 35°33' E 140°02'0 0.0
2014-Jul-18 15:25N 35°33' E 140°02'0 0.0
2014-Jul-18 14:25N 35°33' E 140°02'0 0.0
2014-Jul-18 13:31N 35°33' E 140°02'0 0.0
2014-Jul-18 12:31N 35°33' E 140°02'0 0.0
2014-Jul-18 11:31N 35°33' E 140°02'0 0.0
2014-Jul-18 10:31N 35°33' E 140°02'0 0.0
2014-Jul-18 09:31N 35°33' E 140°02'0 0.0
2014-Jul-18 08:28N 35°33' E 140°02'0 0.0
2014-Jul-18 07:28N 35°33' E 140°02'0 0.0
2014-Jul-18 06:31N 35°33' E 140°02'0 0.0
2014-Jul-18 05:31N 35°33' E 140°02'0 0.0
2014-Jul-18 04:28N 35°33' E 140°02'0 0.0
2014-Jul-18 03:25N 35°33' E 140°02'0 0.0
2014-Jul-18 02:28N 35°33' E 140°02'0 0.0
2014-Jul-18 01:31N 35°33' E 140°02'0 0.0
2014-Jul-18 00:25N 35°33' E 140°02'0 0.0
2014-Jul-17 23:31N 35°33' E 140°02'0 0.0
2014-Jul-17 22:31N 35°33' E 140°02'3 3.0
2014-Jul-17 21:33N 35°32' E 139°59'9 9.0
2014-Jul-17 20:34N 35°27' E 139°50'9 9.4
2014-Jul-17 19:34N 35°19' E 139°44'9 8.6
2014-Jul-17 18:33N 35°10' E 139°47'9 8.8
2014-Jul-17 17:33N 35°03' E 139°40'  
Track history (hours):
 
Tides and Currents Weather Stations Pressure Air Temp Water Temp Dewpoint Dewpoint Depression Visibility Wind Speed Wind Dir Waves Ship Positions

Hai Hua

Last reported at 2014-Jul-23 13:18 UTC. Time now 2014-Jul-25 09:06 UTC.
Position N 34°55' E 139°28'.

Length 69 m; draft 4.2 m.

MMSI: 515171000.

Date/timePositionNaut miles runAvg speedWind from/ knotsBaromVisibWave heightAir tempDewpointWater temp
2014-Jul-23 13:18N 34°55' E 139°28'6 7.8
2014-Jul-23 12:33N 34°59' E 139°33'8 8.4
2014-Jul-23 11:33N 35°04' E 139°41'9 9.1
2014-Jul-23 10:33N 35°12' E 139°46'9 9.4
2014-Jul-23 09:33N 35°21' E 139°42'9 9.0
2014-Jul-23 08:33N 35°29' E 139°48'4 3.5
2014-Jul-23 07:32N 35°31' E 139°45'0 0.0
2014-Jul-23 06:32N 35°31' E 139°45'0 0.0
2014-Jul-23 05:32N 35°31' E 139°45'0 0.0
2014-Jul-23 04:32N 35°31' E 139°45'0 0.0
2014-Jul-23 03:32N 35°31' E 139°45'0 0.0
2014-Jul-23 02:32N 35°31' E 139°45'0 0.0
2014-Jul-23 01:29N 35°31' E 139°45'0 0.0
2014-Jul-23 00:32N 35°31' E 139°45'0 0.0
2014-Jul-22 23:29N 35°31' E 139°45'0 0.0
2014-Jul-22 22:32N 35°31' E 139°45'0 0.0
2014-Jul-22 21:23N 35°31' E 139°45'0 0.0
2014-Jul-22 20:32N 35°31' E 139°45'0 0.0
2014-Jul-22 19:32N 35°31' E 139°45'0 0.0
2014-Jul-22 18:32N 35°31' E 139°45'0 0.0
2014-Jul-22 17:32N 35°31' E 139°45'0 0.0
2014-Jul-22 16:26N 35°31' E 139°45'0 0.0
2014-Jul-22 15:32N 35°31' E 139°45'0 0.0
2014-Jul-22 14:26N 35°31' E 139°45'0 0.0
2014-Jul-22 13:20N 35°31' E 139°45'0 0.0
2014-Jul-22 12:32N 35°31' E 139°45'0 0.0
2014-Jul-22 11:32N 35°31' E 139°45'0 0.0
2014-Jul-22 10:32N 35°31' E 139°45'0 0.0
2014-Jul-22 09:32N 35°31' E 139°45'0 0.0
2014-Jul-22 08:29N 35°31' E 139°45'0 0.0
2014-Jul-22 07:32N 35°31' E 139°45'0 0.0
2014-Jul-22 06:29N 35°31' E 139°45'0 0.0
2014-Jul-22 05:32N 35°31' E 139°45'0 0.0
2014-Jul-22 04:32N 35°31' E 139°45'0 0.0
2014-Jul-22 03:17N 35°31' E 139°45'0 0.0
2014-Jul-22 02:32N 35°31' E 139°45'0 0.0
2014-Jul-22 01:28N 35°31' E 139°45'0 0.0
2014-Jul-22 00:31N 35°31' E 139°45'0 0.0
2014-Jul-21 23:28N 35°31' E 139°45'0 0.0
2014-Jul-21 22:28N 35°31' E 139°45'3 3.4
2014-Jul-21 21:34N 35°29' E 139°42'2 1.9
2014-Jul-21 20:32N 35°27' E 139°43'0 0.1
2014-Jul-21 20:14N 35°27' E 139°43'0 0.0
2014-Jul-21 19:32N 35°27' E 139°43'0 0.0
2014-Jul-21 18:32N 35°27' E 139°43'0 0.0
2014-Jul-21 17:32N 35°27' E 139°43'0 0.0
2014-Jul-21 16:32N 35°27' E 139°43'0 0.0
2014-Jul-21 15:32N 35°27' E 139°43'0 0.0
2014-Jul-21 14:32N 35°27' E 139°43'0 0.0
2014-Jul-21 13:31N 35°27' E 139°43'0 0.0
2014-Jul-21 12:31N 35°27' E 139°43'0 0.0
2014-Jul-21 11:31N 35°27' E 139°43'0 0.0
2014-Jul-21 10:28N 35°27' E 139°43'0 0.0
2014-Jul-21 09:31N 35°27' E 139°43'0 0.0
2014-Jul-21 08:28N 35°27' E 139°43'0 0.1
2014-Jul-21 07:31N 35°27' E 139°42'0 0.0
2014-Jul-21 06:31N 35°27' E 139°42'0 0.0
2014-Jul-21 05:31N 35°27' E 139°42'0 0.0
2014-Jul-21 04:31N 35°27' E 139°42'0 0.0
2014-Jul-21 03:31N 35°27' E 139°42'0 0.0
2014-Jul-21 02:31N 35°27' E 139°42'0 0.0
2014-Jul-21 01:31N 35°27' E 139°42'0 0.0
2014-Jul-21 00:28N 35°27' E 139°42'0 0.0
2014-Jul-20 23:31N 35°27' E 139°42'0 0.0
2014-Jul-20 22:31N 35°27' E 139°42'0 0.1
2014-Jul-20 21:31N 35°27' E 139°43'0 0.0
2014-Jul-20 20:31N 35°27' E 139°43'0 0.0
2014-Jul-20 19:31N 35°27' E 139°43'0 0.0
2014-Jul-20 18:31N 35°27' E 139°43'0 0.0
2014-Jul-20 17:31N 35°27' E 139°43'0 0.0
2014-Jul-20 16:31N 35°27' E 139°43'0 0.0
2014-Jul-20 15:31N 35°27' E 139°43'0 0.0
2014-Jul-20 14:31N 35°27' E 139°43'0 0.0
2014-Jul-20 13:31N 35°27' E 139°43'0 0.1
2014-Jul-20 12:31N 35°27' E 139°42'0 0.0
2014-Jul-20 11:31N 35°27' E 139°42'0 0.0
2014-Jul-20 10:31N 35°27' E 139°42'0 0.0
2014-Jul-20 09:31N 35°27' E 139°43'0 0.0
2014-Jul-20 08:31N 35°27' E 139°43'0 0.1
2014-Jul-20 07:31N 35°27' E 139°42'0 0.0
2014-Jul-20 06:31N 35°27' E 139°42'0 0.0
2014-Jul-20 05:31N 35°27' E 139°42'0 0.0
2014-Jul-20 04:31N 35°27' E 139°42'0 0.0
2014-Jul-20 03:31N 35°27' E 139°42'0 0.0
2014-Jul-20 02:31N 35°27' E 139°42'0 0.0
2014-Jul-20 01:31N 35°27' E 139°42'0 0.0
2014-Jul-20 00:31N 35°27' E 139°42'0 0.1
2014-Jul-19 23:31N 35°27' E 139°43'0 0.0
2014-Jul-19 22:31N 35°27' E 139°43'0 0.0
2014-Jul-19 21:31N 35°27' E 139°42'0 0.0
2014-Jul-19 20:31N 35°27' E 139°42'0 0.0
2014-Jul-19 19:31N 35°27' E 139°42'0 0.0
2014-Jul-19 18:31N 35°27' E 139°42'0 0.0
2014-Jul-19 17:31N 35°27' E 139°42'0 0.0
2014-Jul-19 16:31N 35°27' E 139°42'0 0.0
2014-Jul-19 15:31N 35°27' E 139°43'0 0.0
2014-Jul-19 14:31N 35°27' E 139°43'0 0.0
2014-Jul-19 13:31N 35°27' E 139°43'0 0.0
2014-Jul-19 12:31N 35°27' E 139°43'0 0.0
2014-Jul-19 11:31N 35°27' E 139°43'0 0.0
2014-Jul-19 10:31N 35°27' E 139°43'0 0.0
2014-Jul-19 09:31N 35°27' E 139°43'1 1.3
2014-Jul-19 08:33N 35°27' E 139°44'1010.1
2014-Jul-19 07:33N 35°31' E 139°55'9 9.3
2014-Jul-19 06:33N 35°33' E 140°06'0 0.0
2014-Jul-19 05:32N 35°33' E 140°06'0 0.0
2014-Jul-19 04:32N 35°33' E 140°06'0 0.0
2014-Jul-19 03:32N 35°33' E 140°06'0 0.0
2014-Jul-19 02:32N 35°33' E 140°06'0 0.0
2014-Jul-19 01:23N 35°33' E 140°06'0 0.0
2014-Jul-19 00:32N 35°33' E 140°06'0 0.0
2014-Jul-18 23:32N 35°33' E 140°06'0 0.0
2014-Jul-18 22:34N 35°33' E 140°06'4 3.3
2014-Jul-18 21:28N 35°33' E 140°02'0 0.1
2014-Jul-18 20:31N 35°33' E 140°02'0 0.0
2014-Jul-18 19:31N 35°33' E 140°02'0 0.0
2014-Jul-18 18:31N 35°33' E 140°02'0 0.0
2014-Jul-18 17:31N 35°33' E 140°02'0 0.0
2014-Jul-18 16:31N 35°33' E 140°02'0 0.0
2014-Jul-18 15:25N 35°33' E 140°02'0 0.0
2014-Jul-18 14:25N 35°33' E 140°02'0 0.0
2014-Jul-18 13:31N 35°33' E 140°02'0 0.0
2014-Jul-18 12:31N 35°33' E 140°02'0 0.0
2014-Jul-18 11:31N 35°33' E 140°02'0 0.0
2014-Jul-18 10:31N 35°33' E 140°02'0 0.0
2014-Jul-18 09:31N 35°33' E 140°02'0 0.0
2014-Jul-18 08:28N 35°33' E 140°02'0 0.0
2014-Jul-18 07:28N 35°33' E 140°02'0 0.0
2014-Jul-18 06:31N 35°33' E 140°02'0 0.0
2014-Jul-18 05:31N 35°33' E 140°02'0 0.0
2014-Jul-18 04:28N 35°33' E 140°02'0 0.0
2014-Jul-18 03:25N 35°33' E 140°02'0 0.0
2014-Jul-18 02:28N 35°33' E 140°02'0 0.0
2014-Jul-18 01:31N 35°33' E 140°02'0 0.0
2014-Jul-18 00:25N 35°33' E 140°02'0 0.0
2014-Jul-17 23:31N 35°33' E 140°02'0 0.0
2014-Jul-17 22:31N 35°33' E 140°02'3 3.0
2014-Jul-17 21:33N 35°32' E 139°59'9 9.0
2014-Jul-17 20:34N 35°27' E 139°50'9 9.4
2014-Jul-17 19:34N 35°19' E 139°44'9 8.6
2014-Jul-17 18:33N 35°10' E 139°47'9 8.8
2014-Jul-17 17:33N 35°03' E 139°40'  

Dump ship's entire track history